Terminal Aerodrome Forecast
Issued by NWS

Current Version | Previous Version | Text Only | Print | Product List | Glossary On
Versions: 1 2 3 4 5 6 7 8 9 10 11 12 13 14 15 16 17 18 19 20 21
119
FTUS41 KGYX 200526
TAFAUG
TAF
KAUG 200526Z 2006/2106 35009KT P6SM OVC040
      TEMPO 2008/2012 SCT050
     FM201200 33009KT P6SM SCT060
     FM201400 34012G19KT P6SM SCT060
     FM210000 34010KT P6SM SKC=

USA.gov is the U.S. government's official web portal to all federal, state and local government web resources and services.